Forest Hills, KY (41527)

5:51 AM EDT on July 28, 2015 (GMT -0400)
West Williamson, WV | | Change Station
CLOSE
Current Station
Personal Weather Station
Location: Williamson, WV
Elevation: 682 ft
Nearby Weather Stations

Elev 682 ft 37.68 °N, 82.29 °W | Updated 18 seconds ago

Fog
Fog
75.4 °F
Feels Like 74 °F
N
0.0
Wind Variable Wind from ESE
Gusts 0.0 mph

Today
High -- | Low -- °F
--% Chance of Precip.
Yesterday
High -- | Low -- °F
Precip. -- in
6:29 AM 8:41 PM
Waxing Gibbous, 88% visible
Pressure 30.02 in
Visibility 7.0 miles
Clouds Clear
Heat Index 74 °F
Dew Point 74 °F
Humidity 95%
Rainfall 0.00 in
Snow Depth Not available.
UV 0 out of 12
Pollen 3.80 out of 12
Air Quality Not available.
Flu Activity Not available.
METAR KSJS 280935Z AUTO 00000KT 7SM CLR 21/21 A3002 RMK AO2 T02120211

More Conditions Fewer Conditions

Pressure 30.02 in
Visibility 7.0 miles
Clouds Clear
Heat Index 74 °F
Dew Point 74 °F
Humidity 95%
Rainfall 0.00 in
Snow Depth Not available.
UV 0 out of 12
Pollen 3.80 out of 12
Air Quality Not available.
Flu Activity Not available.
METAR KSJS 280935Z AUTO 00000KT 7SM CLR 21/21 A3002 RMK AO2 T02120211

More Conditions Fewer Conditions

10-Day Weather Forecast

×

Almanac

Astronomy

Jul. 28, 2015 Rise Set
Actual Time
Civil Twilight
Nautical Twilight
Astronomical Twilight
Moon
Length of Visible Light
Length of Day
Tomorrow will be .
, % of the Moon is Illuminated

Today's Extremes

State Highs State Lows

Community

WunderPhotos

Upload Photos

1,841,800 photos uploaded!

WunderBlogs® & News

Nearby

Air Quality

  Air Quality AQ Index Pollutant
Not available.

Snow Depth

Station Depth Elevation

Earthquake Activity

City Distance Mag. Time & Date
Minimum magnitude displayed is 2.5.

Coastal Water Temperatures

Place Temperature

Stations

Nearby Weather Stations

Station Location Temp. Windchill Dew Point Humidity Wind Precip. Elev Updated Type